createdAt,value
2016-12-10T00:01:03.715Z,0
2016-12-10T00:02:20.237Z,0
2016-12-10T00:03:36.587Z,0
2016-12-10T00:04:50.243Z,0
2016-12-10T00:06:05.834Z,0
2016-12-10T00:07:20.460Z,0
2016-12-10T00:08:36.532Z,0
2016-12-10T00:09:50.558Z,0
2016-12-10T00:11:05.471Z,0
2016-12-10T00:12:22.418Z,0
2016-12-10T00:13:35.908Z,0
2016-12-10T00:14:48.183Z,0
2016-12-10T00:16:05.287Z,0
2016-12-10T00:17:19.502Z,0
2016-12-10T00:18:36.293Z,0
2016-12-10T00:19:52.786Z,0
2016-12-10T00:21:09.325Z,0
2016-12-10T00:22:24.156Z,0
2016-12-10T00:23:40.831Z,0
2016-12-10T00:24:56.172Z,0
2016-12-10T00:26:11.169Z,0
2016-12-10T00:27:26.253Z,0
2016-12-10T00:28:40.461Z,0
2016-12-10T00:29:55.951Z,0
2016-12-10T00:31:09.098Z,0
2016-12-10T00:32:25.402Z,0
2016-12-10T00:33:40.945Z,0
2016-12-10T00:34:57.001Z,0
2016-12-10T00:36:13.543Z,0
2016-12-10T00:37:28.640Z,0
2016-12-10T00:38:45.069Z,0
2016-12-10T00:40:00.579Z,0
2016-12-10T00:41:17.323Z,0
2016-12-10T00:42:33.398Z,0
2016-12-10T00:43:50.510Z,0
2016-12-10T00:45:05.303Z,0
2016-12-10T00:46:18.486Z,0
2016-12-10T00:47:33.249Z,0
2016-12-10T00:48:46.957Z,0
2016-12-10T00:50:03.894Z,0
2016-12-10T00:51:15.848Z,0
2016-12-10T00:52:29.182Z,0
2016-12-10T00:53:45.201Z,0
2016-12-10T00:55:01.375Z,0
2016-12-10T00:56:17.914Z,0
2016-12-10T00:57:32.904Z,0
2016-12-10T00:58:48.015Z,0
2016-12-10T01:00:03.141Z,0
2016-12-10T01:01:18.026Z,0
2016-12-10T01:02:32.413Z,0
2016-12-10T01:03:45.958Z,0
2016-12-10T01:05:02.528Z,0
2016-12-10T01:06:19.421Z,0
2016-12-10T01:07:34.025Z,0
2016-12-10T01:08:49.058Z,0
2016-12-10T01:10:04.559Z,0
2016-12-10T01:11:18.821Z,0
2016-12-10T01:12:34.524Z,0
2016-12-10T01:13:50.306Z,0
2016-12-10T01:15:03.691Z,0
2016-12-10T01:16:18.394Z,0
2016-12-10T01:17:34.684Z,0
2016-12-10T01:18:50.032Z,0
2016-12-10T01:20:06.362Z,0
2016-12-10T01:21:22.661Z,0
2016-12-10T01:22:39.395Z,0
2016-12-10T01:23:56.232Z,0
2016-12-10T01:25:10.616Z,0
2016-12-10T01:26:25.743Z,0
2016-12-10T01:27:41.914Z,0
2016-12-10T01:28:57.665Z,0
2016-12-10T01:30:13.073Z,0
2016-12-10T01:31:29.772Z,0
2016-12-10T01:32:46.384Z,0
2016-12-10T01:34:01.477Z,0
2016-12-10T01:35:18.046Z,0
2016-12-10T01:36:31.875Z,0
2016-12-10T01:37:46.991Z,0
2016-12-10T01:39:03.655Z,0
2016-12-10T01:40:16.853Z,0
2016-12-10T01:41:33.292Z,0
2016-12-10T01:42:48.128Z,0
2016-12-10T01:43:59.597Z,0
2016-12-10T01:45:16.206Z,0
2016-12-10T01:46:32.077Z,0
2016-12-10T01:47:48.458Z,0
2016-12-10T01:49:01.582Z,0
2016-12-10T01:50:18.011Z,0
2016-12-10T01:51:33.937Z,0
2016-12-10T01:52:50.264Z,0
2016-12-10T01:54:04.293Z,0
2016-12-10T01:55:20.392Z,0
2016-12-10T01:56:37.299Z,0
2016-12-10T01:57:52.715Z,0
2016-12-10T01:59:06.514Z,0
2016-12-10T02:00:20.503Z,0
2016-12-10T02:01:35.368Z,0
2016-12-10T02:02:51.765Z,0
2016-12-10T02:04:06.610Z,0
2016-12-10T02:05:21.467Z,0
2016-12-10T02:06:35.336Z,0
2016-12-10T02:07:52.344Z,0
2016-12-10T02:09:07.157Z,0
2016-12-10T02:10:20.555Z,0
2016-12-10T02:11:34.580Z,0
2016-12-10T02:12:51.746Z,0
2016-12-10T02:14:08.518Z,0
2016-12-10T02:15:20.420Z,0
2016-12-10T02:16:35.666Z,0
2016-12-10T02:17:51.572Z,0
2016-12-10T02:19:07.059Z,0
2016-12-10T02:20:23.998Z,0
2016-12-10T02:21:37.003Z,0
2016-12-10T02:22:52.247Z,0
2016-12-10T02:24:06.913Z,0
2016-12-10T02:25:19.985Z,0
2016-12-10T02:26:31.589Z,0
2016-12-10T02:27:45.799Z,0
2016-12-10T02:28:59.441Z,0
2016-12-10T02:30:15.896Z,0
2016-12-10T02:31:32.189Z,0
2016-12-10T02:32:46.047Z,0
2016-12-10T02:34:01.045Z,0
2016-12-10T02:35:16.056Z,0
2016-12-10T02:36:31.721Z,0
2016-12-10T02:37:45.194Z,0
2016-12-10T02:39:00.810Z,0
2016-12-10T02:40:16.884Z,0
2016-12-10T02:41:30.154Z,0
2016-12-10T02:42:45.028Z,0
2016-12-10T02:43:59.232Z,0
2016-12-10T02:45:15.344Z,0
2016-12-10T02:46:30.611Z,0
2016-12-10T02:47:45.332Z,0
2016-12-10T02:48:57.208Z,0
2016-12-10T02:50:12.699Z,0
2016-12-10T02:51:28.759Z,0
2016-12-10T02:52:45.680Z,0
2016-12-10T02:54:00.141Z,0
2016-12-10T02:55:14.160Z,0
2016-12-10T02:56:29.175Z,0
2016-12-10T02:57:44.396Z,0
2016-12-10T02:59:00.655Z,0
2016-12-10T03:00:16.164Z,0
2016-12-10T03:01:31.413Z,0
2016-12-10T03:02:44.983Z,0
2016-12-10T03:03:59.512Z,0
2016-12-10T03:05:12.623Z,0
2016-12-10T03:06:29.240Z,0
2016-12-10T03:07:45.276Z,0
2016-12-10T03:09:01.560Z,0
2016-12-10T03:10:17.466Z,0
2016-12-10T03:11:31.490Z,0
2016-12-10T03:12:47.535Z,0
2016-12-10T03:14:01.475Z,0
2016-12-10T03:15:17.529Z,0
2016-12-10T03:16:33.022Z,0
2016-12-10T03:17:49.066Z,0
2016-12-10T03:19:01.268Z,0
2016-12-10T03:20:15.638Z,0
2016-12-10T03:21:30.302Z,0
2016-12-10T03:22:43.692Z,0
2016-12-10T03:24:00.406Z,0
2016-12-10T03:25:16.635Z,0
2016-12-10T03:26:31.380Z,0
2016-12-10T03:27:45.810Z,0
2016-12-10T03:29:02.400Z,0
2016-12-10T03:30:17.081Z,0
2016-12-10T03:31:31.779Z,0
2016-12-10T03:32:48.064Z,0
2016-12-10T03:34:02.827Z,0
2016-12-10T03:35:18.745Z,0
2016-12-10T03:36:34.014Z,0
2016-12-10T03:37:48.064Z,0
2016-12-10T03:39:03.963Z,0
2016-12-10T03:40:19.113Z,0
2016-12-10T03:41:32.583Z,0
2016-12-10T03:42:48.730Z,0
2016-12-10T03:44:03.218Z,0
2016-12-10T03:45:17.674Z,0
2016-12-10T03:46:33.607Z,0
2016-12-10T03:47:49.490Z,0
2016-12-10T03:49:05.839Z,0
2016-12-10T03:50:20.293Z,0
2016-12-10T03:51:35.776Z,0
2016-12-10T03:52:49.468Z,0
2016-12-10T03:54:05.205Z,0
2016-12-10T03:55:21.098Z,0
2016-12-10T03:56:37.261Z,0
2016-12-10T03:57:49.195Z,0
2016-12-10T03:59:03.738Z,0
2016-12-10T04:00:20.041Z,0
2016-12-10T04:01:33.121Z,0
2016-12-10T04:02:49.416Z,0
2016-12-10T04:04:02.810Z,0
2016-12-10T04:05:17.736Z,0
2016-12-10T04:06:34.045Z,0
2016-12-10T04:07:50.193Z,0
2016-12-10T04:09:06.505Z,0
2016-12-10T04:10:22.758Z,0
2016-12-10T04:11:37.967Z,0
2016-12-10T04:12:52.380Z,0
2016-12-10T04:14:06.210Z,0
2016-12-10T04:15:22.106Z,0
2016-12-10T04:16:38.421Z,0
2016-12-10T04:17:55.141Z,0
2016-12-10T04:19:07.870Z,0
2016-12-10T04:20:24.175Z,0
2016-12-10T04:21:37.579Z,0
2016-12-10T04:22:53.511Z,0
2016-12-10T04:24:09.861Z,0
2016-12-10T04:25:24.545Z,0
2016-12-10T04:26:39.409Z,0
2016-12-10T04:27:55.316Z,0
2016-12-10T04:29:10.963Z,0
2016-12-10T04:30:25.510Z,0
2016-12-10T04:31:39.005Z,0
2016-12-10T04:32:52.352Z,0
2016-12-10T04:34:06.831Z,0
2016-12-10T04:35:22.707Z,0
2016-12-10T04:36:35.845Z,0
2016-12-10T04:37:52.850Z,0
2016-12-10T04:39:06.089Z,0
2016-12-10T04:40:22.024Z,0
2016-12-10T04:41:37.700Z,0
2016-12-10T04:42:53.326Z,0
2016-12-10T04:44:08.363Z,0
2016-12-10T04:45:22.984Z,0
2016-12-10T04:46:35.977Z,0
2016-12-10T04:47:52.026Z,0
2016-12-10T04:49:03.889Z,0
2016-12-10T04:50:20.072Z,0
2016-12-10T04:51:34.602Z,0
2016-12-10T04:52:49.459Z,0
2016-12-10T04:54:05.473Z,0
2016-12-10T04:55:21.861Z,0
2016-12-10T04:56:38.043Z,0
2016-12-10T04:57:53.698Z,0
2016-12-10T04:59:06.931Z,0
2016-12-10T05:00:22.995Z,0
2016-12-10T05:01:37.467Z,0
2016-12-10T05:02:51.794Z,0
2016-12-10T05:04:07.324Z,0
2016-12-10T05:05:22.666Z,0
2016-12-10T05:06:39.574Z,0
2016-12-10T05:07:52.661Z,0
2016-12-10T05:09:09.466Z,0
2016-12-10T05:10:25.772Z,0
2016-12-10T05:11:40.865Z,0
2016-12-10T05:12:55.850Z,0
2016-12-10T05:14:12.484Z,0
2016-12-10T05:15:28.124Z,0
2016-12-10T05:16:42.342Z,0
2016-12-10T05:17:55.820Z,0
2016-12-10T05:19:11.103Z,0
2016-12-10T05:20:24.320Z,0
2016-12-10T05:21:36.420Z,0
2016-12-10T05:22:51.180Z,0
2016-12-10T05:24:07.138Z,0
2016-12-10T05:25:22.635Z,0
2016-12-10T05:26:38.438Z,0
2016-12-10T05:27:51.675Z,0
2016-12-10T05:29:08.125Z,0
2016-12-10T05:30:22.992Z,0
2016-12-10T05:31:39.248Z,0
2016-12-10T05:32:53.579Z,0
2016-12-10T05:34:08.006Z,0
2016-12-10T05:35:22.709Z,0
2016-12-10T05:36:37.408Z,0
2016-12-10T05:37:52.908Z,0
2016-12-10T05:39:07.296Z,0
2016-12-10T05:40:20.867Z,0
2016-12-10T05:41:35.557Z,0
2016-12-10T05:42:50.510Z,0
2016-12-10T05:44:05.833Z,0
2016-12-10T05:45:20.801Z,0
2016-12-10T05:46:35.757Z,0
2016-12-10T05:47:50.482Z,0
2016-12-10T05:49:05.335Z,0
2016-12-10T05:50:21.479Z,0
2016-12-10T05:51:33.705Z,0
2016-12-10T05:52:48.132Z,0
2016-12-10T05:54:02.820Z,0
2016-12-10T05:55:18.779Z,0
2016-12-10T05:56:31.703Z,0
2016-12-10T05:57:45.107Z,0
2016-12-10T05:58:56.629Z,0
2016-12-10T06:00:12.939Z,0
2016-12-10T06:01:29.273Z,0
2016-12-10T06:02:41.205Z,0
2016-12-10T06:03:57.305Z,0
2016-12-10T06:05:12.030Z,0
2016-12-10T06:06:26.717Z,0
2016-12-10T06:07:38.638Z,0
2016-12-10T06:08:52.843Z,0
2016-12-10T06:10:06.358Z,0
2016-12-10T06:11:21.197Z,0
2016-12-10T06:12:37.338Z,0
2016-12-10T06:13:52.566Z,0
2016-12-10T06:15:08.025Z,0
2016-12-10T06:16:22.900Z,0
2016-12-10T06:17:37.935Z,0
2016-12-10T06:18:52.413Z,0
2016-12-10T06:20:07.298Z,0
2016-12-10T06:21:23.598Z,0
2016-12-10T06:22:38.059Z,0
2016-12-10T06:23:51.265Z,0
2016-12-10T06:25:03.200Z,0
2016-12-10T06:26:16.570Z,0
2016-12-10T06:27:31.249Z,0
2016-12-10T06:28:47.647Z,0
2016-12-10T06:30:01.697Z,0
2016-12-10T06:31:17.576Z,0
2016-12-10T06:32:33.738Z,0
2016-12-10T06:33:49.656Z,0
2016-12-10T06:35:05.708Z,0
2016-12-10T06:36:19.774Z,0
2016-12-10T06:37:34.073Z,0
2016-12-10T06:38:49.620Z,0
2016-12-10T06:40:04.212Z,0
2016-12-10T06:41:19.994Z,0
2016-12-10T06:42:34.019Z,0
2016-12-10T06:43:48.625Z,0
2016-12-10T06:45:04.199Z,0
2016-12-10T06:46:19.247Z,0
2016-12-10T06:47:33.877Z,0
2016-12-10T06:48:49.833Z,0
2016-12-10T06:50:04.525Z,0
2016-12-10T06:51:18.811Z,0
2016-12-10T06:52:31.868Z,0
2016-12-10T06:53:47.061Z,0
2016-12-10T06:55:02.357Z,0
2016-12-10T06:56:16.879Z,0
2016-12-10T06:57:32.013Z,0
2016-12-10T06:58:45.502Z,0
2016-12-10T07:00:00.846Z,0
2016-12-10T07:01:16.996Z,0
2016-12-10T07:02:32.034Z,0
2016-12-10T07:03:45.490Z,0
2016-12-10T07:05:01.689Z,0
2016-12-10T07:06:18.326Z,0
2016-12-10T07:07:33.266Z,0
2016-12-10T07:08:49.191Z,0
2016-12-10T07:10:03.245Z,0
2016-12-10T07:11:18.341Z,0
2016-12-10T07:12:33.479Z,0
2016-12-10T07:13:49.265Z,0
2016-12-10T07:15:06.164Z,0
2016-12-10T07:16:22.472Z,0
2016-12-10T07:17:38.138Z,0
2016-12-10T07:18:52.598Z,0
2016-12-10T07:20:07.720Z,0
2016-12-10T07:21:23.970Z,0
2016-12-10T07:22:40.667Z,5
2016-12-10T07:23:55.716Z,5
2016-12-10T07:25:09.993Z,5
2016-12-10T07:26:25.650Z,5
2016-12-10T07:27:37.665Z,5
2016-12-10T07:28:53.191Z,5
2016-12-10T07:30:06.659Z,5
2016-12-10T07:31:23.001Z,10
2016-12-10T07:32:38.916Z,10
2016-12-10T07:33:52.933Z,10
2016-12-10T07:35:07.854Z,10
2016-12-10T07:36:22.712Z,15
2016-12-10T07:37:37.519Z,15
2016-12-10T07:38:52.568Z,15
2016-12-10T07:40:08.705Z,15
2016-12-10T07:41:21.751Z,20
2016-12-10T07:42:36.056Z,20
2016-12-10T07:43:52.219Z,20
2016-12-10T07:45:05.318Z,20
2016-12-10T07:46:21.607Z,25
2016-12-10T07:47:36.852Z,25
2016-12-10T07:48:53.574Z,25
2016-12-10T07:50:06.272Z,25
2016-12-10T07:51:21.517Z,30
2016-12-10T07:52:38.003Z,30
2016-12-10T07:53:53.057Z,30
2016-12-10T07:55:06.065Z,30
2016-12-10T07:56:19.424Z,25
2016-12-10T07:57:31.702Z,25
2016-12-10T07:58:45.991Z,30
2016-12-10T08:00:02.830Z,30
2016-12-10T08:01:15.907Z,35
2016-12-10T08:02:30.821Z,40
2016-12-10T08:03:47.538Z,45
2016-12-10T08:05:04.431Z,50
2016-12-10T08:06:20.461Z,55
2016-12-10T08:07:34.728Z,60
2016-12-10T08:08:50.736Z,60
2016-12-10T08:10:06.116Z,65
2016-12-10T08:11:19.841Z,65
2016-12-10T08:12:34.470Z,70
2016-12-10T08:13:49.355Z,75
2016-12-10T08:15:05.469Z,75
2016-12-10T08:16:19.856Z,75
2016-12-10T08:17:32.880Z,80
2016-12-10T08:18:47.575Z,80
2016-12-10T08:20:02.099Z,80
2016-12-10T08:21:17.128Z,80
2016-12-10T08:22:33.256Z,85
2016-12-10T08:23:46.153Z,85
2016-12-10T08:25:02.413Z,90
2016-12-10T08:26:17.060Z,95
2016-12-10T08:27:31.806Z,95
2016-12-10T08:28:46.381Z,90
2016-12-10T08:30:01.107Z,90
2016-12-10T08:31:17.411Z,90
2016-12-10T08:32:30.338Z,90
2016-12-10T08:33:45.736Z,85
2016-12-10T08:35:02.338Z,95
2016-12-10T08:36:17.303Z,100
2016-12-10T08:37:30.667Z,115
2016-12-10T08:38:47.011Z,110
2016-12-10T08:40:02.873Z,110
2016-12-10T08:41:19.411Z,125
2016-12-10T08:42:33.717Z,150
2016-12-10T08:43:49.778Z,210
2016-12-10T08:45:03.156Z,155
2016-12-10T08:46:18.465Z,140
2016-12-10T08:47:32.964Z,140
2016-12-10T08:48:47.815Z,145
2016-12-10T08:50:04.313Z,135
2016-12-10T08:51:20.263Z,135
2016-12-10T08:52:36.162Z,135
2016-12-10T08:53:52.691Z,135
2016-12-10T08:55:08.087Z,135
2016-12-10T08:56:22.337Z,140
2016-12-10T08:57:35.349Z,135
2016-12-10T08:58:48.557Z,135
2016-12-10T09:00:01.557Z,140
2016-12-10T09:01:14.883Z,140
2016-12-10T09:02:30.399Z,145
2016-12-10T09:03:44.828Z,150
2016-12-10T09:05:01.557Z,155
2016-12-10T09:06:17.468Z,160
2016-12-10T09:07:31.363Z,160
2016-12-10T09:08:47.403Z,170
2016-12-10T09:10:02.767Z,185
2016-12-10T09:11:17.853Z,190
2016-12-10T09:12:33.693Z,235
2016-12-10T09:13:45.964Z,255
2016-12-10T09:14:59.359Z,180
2016-12-10T09:16:13.380Z,160
2016-12-10T09:17:24.869Z,155
2016-12-10T09:18:41.109Z,145
2016-12-10T09:19:57.968Z,150
2016-12-10T09:21:13.886Z,170
2016-12-10T09:22:30.006Z,160
2016-12-10T09:23:46.800Z,145
2016-12-10T09:25:02.101Z,135
2016-12-10T09:26:17.362Z,125
2016-12-10T09:27:33.814Z,120
2016-12-10T09:28:46.176Z,130
2016-12-10T09:30:01.060Z,145
2016-12-10T09:31:17.419Z,160
2016-12-10T09:32:32.693Z,170
2016-12-10T09:33:49.656Z,180
2016-12-10T09:35:06.835Z,185
2016-12-10T09:36:20.482Z,185
2016-12-10T09:37:35.158Z,200
2016-12-10T09:38:52.084Z,210
2016-12-10T09:40:09.424Z,215
2016-12-10T09:41:24.078Z,215
2016-12-10T09:42:38.877Z,205
2016-12-10T09:43:52.410Z,185
2016-12-10T09:45:09.158Z,190
2016-12-10T09:46:26.084Z,180
2016-12-10T09:47:42.603Z,180
2016-12-10T09:48:55.692Z,175
2016-12-10T09:50:09.724Z,175
2016-12-10T09:51:24.905Z,170
2016-12-10T09:52:41.281Z,165
2016-12-10T09:53:56.696Z,170
2016-12-10T09:55:12.911Z,180
2016-12-10T09:56:28.094Z,180
2016-12-10T09:57:42.992Z,185
2016-12-10T09:58:59.164Z,175
2016-12-10T10:00:13.462Z,170
2016-12-10T10:01:28.833Z,160
2016-12-10T10:02:45.456Z,140
2016-12-10T10:03:59.089Z,130
2016-12-10T10:05:12.641Z,110
2016-12-10T10:06:27.370Z,105
2016-12-10T10:07:42.224Z,100
2016-12-10T10:08:57.275Z,110
2016-12-10T10:10:11.944Z,110
2016-12-10T10:11:27.298Z,115
2016-12-10T10:12:42.320Z,130
2016-12-10T10:13:57.586Z,140
2016-12-10T10:15:14.381Z,165
2016-12-10T10:16:30.992Z,175
2016-12-10T10:17:46.906Z,190
2016-12-10T10:19:00.267Z,190
2016-12-10T10:20:15.557Z,185
2016-12-10T10:21:32.900Z,210
2016-12-10T10:22:49.208Z,190
2016-12-10T10:24:02.622Z,170
2016-12-10T10:25:19.714Z,175
2016-12-10T10:26:34.257Z,185
2016-12-10T10:27:48.614Z,180
2016-12-10T10:29:04.338Z,175
2016-12-10T10:30:17.765Z,170
2016-12-10T10:31:29.574Z,160
2016-12-10T10:32:44.647Z,140
2016-12-10T10:33:58.290Z,140
2016-12-10T10:35:11.359Z,145
2016-12-10T10:36:24.902Z,140
2016-12-10T10:37:39.864Z,130
2016-12-10T10:38:56.728Z,120
2016-12-10T10:40:12.087Z,125
2016-12-10T10:41:28.157Z,125
2016-12-10T10:42:44.757Z,140
2016-12-10T10:44:01.279Z,135
2016-12-10T10:45:14.980Z,135
2016-12-10T10:46:29.951Z,135
2016-12-10T10:47:45.986Z,140
2016-12-10T10:49:01.272Z,145
2016-12-10T10:50:17.808Z,135
2016-12-10T10:51:32.375Z,145
2016-12-10T10:52:49.266Z,130
2016-12-10T10:54:06.286Z,135
2016-12-10T10:55:23.240Z,120
2016-12-10T10:56:40.164Z,120
2016-12-10T10:57:54.127Z,130
2016-12-10T10:59:08.002Z,130
2016-12-10T11:00:22.027Z,135
2016-12-10T11:01:38.728Z,145
2016-12-10T11:02:53.350Z,155
2016-12-10T11:04:06.899Z,155
2016-12-10T11:05:22.777Z,150
2016-12-10T11:06:38.956Z,145
2016-12-10T11:07:53.641Z,145
2016-12-10T11:09:05.612Z,155
2016-12-10T11:10:20.625Z,165
2016-12-10T11:11:36.725Z,170
2016-12-10T11:12:53.882Z,165
2016-12-10T11:14:10.159Z,170
2016-12-10T11:15:23.583Z,170
2016-12-10T11:16:35.438Z,175
2016-12-10T11:17:51.915Z,175
2016-12-10T11:19:05.981Z,185
2016-12-10T11:20:22.465Z,200
2016-12-10T11:21:37.374Z,205
2016-12-10T11:22:54.131Z,205
2016-12-10T11:24:10.055Z,210
2016-12-10T11:25:26.072Z,205
2016-12-10T11:26:41.857Z,210
2016-12-10T11:27:56.595Z,210
2016-12-10T11:29:12.759Z,210
2016-12-10T11:30:28.724Z,220
2016-12-10T11:31:45.458Z,225
2016-12-10T11:33:02.084Z,315
2016-12-10T11:34:17.111Z,395
2016-12-10T11:35:32.965Z,435
2016-12-10T11:36:47.696Z,405
2016-12-10T11:38:01.067Z,320
2016-12-10T11:39:17.973Z,270
2016-12-10T11:40:34.176Z,240
2016-12-10T11:41:50.939Z,185
2016-12-10T11:43:06.416Z,180
2016-12-10T11:44:23.161Z,165
2016-12-10T11:45:38.458Z,150
2016-12-10T11:46:53.247Z,130
2016-12-10T11:48:09.733Z,100
2016-12-10T11:49:26.054Z,85
2016-12-10T11:50:40.921Z,80
2016-12-10T11:51:55.726Z,75
2016-12-10T11:53:10.343Z,70
2016-12-10T11:54:24.420Z,60
2016-12-10T11:55:40.117Z,60
2016-12-10T11:56:55.907Z,60
2016-12-10T11:58:11.976Z,55
2016-12-10T11:59:27.059Z,45
2016-12-10T12:00:42.807Z,45
2016-12-10T12:01:57.368Z,45
2016-12-10T12:03:13.830Z,50
2016-12-10T12:04:30.315Z,55
2016-12-10T12:05:44.954Z,55
2016-12-10T12:06:56.487Z,55
2016-12-10T12:08:11.358Z,60
2016-12-10T12:09:26.711Z,55
2016-12-10T12:10:42.233Z,50
2016-12-10T12:11:57.117Z,50
2016-12-10T12:13:11.858Z,50
2016-12-10T12:14:25.145Z,55
2016-12-10T12:15:40.194Z,55
2016-12-10T12:16:56.156Z,50
2016-12-10T12:18:11.052Z,40
2016-12-10T12:19:25.925Z,40
2016-12-10T12:20:39.244Z,45
2016-12-10T12:21:52.808Z,50
2016-12-10T12:23:09.018Z,55
2016-12-10T12:24:24.159Z,50
2016-12-10T12:25:38.361Z,45
2016-12-10T12:26:52.795Z,45
2016-12-10T12:28:07.890Z,45
2016-12-10T12:29:24.174Z,45
2016-12-10T12:30:39.044Z,40
2016-12-10T12:31:55.530Z,40
2016-12-10T12:33:11.804Z,40
2016-12-10T12:34:27.295Z,40
2016-12-10T12:35:42.023Z,40
2016-12-10T12:36:57.667Z,40
2016-12-10T12:38:13.970Z,40
2016-12-10T12:39:30.471Z,35
2016-12-10T12:40:45.250Z,30
2016-12-10T12:42:01.558Z,30
2016-12-10T12:43:18.625Z,30
2016-12-10T12:44:31.892Z,30
2016-12-10T12:45:46.587Z,30
2016-12-10T12:47:01.198Z,30
2016-12-10T12:48:12.733Z,30
2016-12-10T12:49:27.745Z,30
2016-12-10T12:50:42.991Z,30
2016-12-10T12:51:56.640Z,30
2016-12-10T12:53:13.448Z,30
2016-12-10T12:54:26.930Z,30
2016-12-10T12:55:39.079Z,30
2016-12-10T12:56:52.830Z,30
2016-12-10T12:58:07.873Z,30
2016-12-10T12:59:24.450Z,30
2016-12-10T13:00:40.781Z,30
2016-12-10T13:01:56.744Z,30
2016-12-10T13:03:11.583Z,30
2016-12-10T13:04:26.432Z,30
2016-12-10T13:05:43.020Z,35
2016-12-10T13:06:58.274Z,35
2016-12-10T13:08:12.974Z,35
2016-12-10T13:09:27.975Z,35
2016-12-10T13:10:42.995Z,35
2016-12-10T13:11:57.605Z,35
2016-12-10T13:13:12.582Z,35
2016-12-10T13:14:27.584Z,40
2016-12-10T13:15:43.079Z,35
2016-12-10T13:16:57.851Z,40
2016-12-10T13:18:14.592Z,40
2016-12-10T13:19:30.894Z,35
2016-12-10T13:20:44.251Z,40
2016-12-10T13:22:00.694Z,35
2016-12-10T13:23:17.473Z,40
2016-12-10T13:24:31.327Z,35
2016-12-10T13:25:48.051Z,30
2016-12-10T13:27:03.024Z,35
2016-12-10T13:28:18.559Z,35
2016-12-10T13:29:32.063Z,30
2016-12-10T13:30:45.137Z,30
2016-12-10T13:32:00.638Z,35
2016-12-10T13:33:15.809Z,30
2016-12-10T13:34:30.350Z,30
2016-12-10T13:35:46.744Z,25
2016-12-10T13:37:03.003Z,20
2016-12-10T13:38:19.492Z,20
2016-12-10T13:39:34.637Z,15
2016-12-10T13:40:51.038Z,15
2016-12-10T13:42:07.412Z,15
2016-12-10T13:43:23.835Z,15
2016-12-10T13:44:40.061Z,15
2016-12-10T13:45:56.807Z,20
2016-12-10T13:47:12.131Z,25
2016-12-10T13:48:26.590Z,30
2016-12-10T13:49:41.698Z,20
2016-12-10T13:50:55.678Z,20
2016-12-10T13:52:11.551Z,20
2016-12-10T13:53:24.485Z,20
2016-12-10T13:54:40.798Z,25
2016-12-10T13:55:56.117Z,25
2016-12-10T13:57:12.070Z,25
2016-12-10T13:58:27.825Z,20
2016-12-10T13:59:44.760Z,20
2016-12-10T14:01:00.786Z,15
2016-12-10T14:02:12.913Z,15
2016-12-10T14:03:26.829Z,15
2016-12-10T14:04:41.575Z,25
2016-12-10T14:05:57.559Z,20
2016-12-10T14:07:12.689Z,25
2016-12-10T14:08:27.045Z,25
2016-12-10T14:09:40.638Z,25
2016-12-10T14:10:55.380Z,25
2016-12-10T14:12:09.774Z,20
2016-12-10T14:13:26.081Z,25
2016-12-10T14:14:41.258Z,25
2016-12-10T14:15:56.488Z,25
2016-12-10T14:17:12.435Z,25
2016-12-10T14:18:27.367Z,25
2016-12-10T14:19:42.267Z,15
2016-12-10T14:20:59.275Z,15
2016-12-10T14:22:14.059Z,10
2016-12-10T14:23:29.183Z,15
2016-12-10T14:24:43.660Z,10
2016-12-10T14:25:59.308Z,10
2016-12-10T14:27:13.525Z,15
2016-12-10T14:28:28.627Z,10
2016-12-10T14:29:44.923Z,15
2016-12-10T14:30:59.326Z,15
2016-12-10T14:32:14.357Z,15
2016-12-10T14:33:29.072Z,10
2016-12-10T14:34:43.940Z,10
2016-12-10T14:36:00.721Z,10
2016-12-10T14:37:15.381Z,10
2016-12-10T14:38:32.054Z,10
2016-12-10T14:39:48.255Z,10
2016-12-10T14:41:02.716Z,10
2016-12-10T14:42:17.379Z,10
2016-12-10T14:43:33.482Z,10
2016-12-10T14:44:48.058Z,10
2016-12-10T14:46:04.923Z,10
2016-12-10T14:47:21.348Z,10
2016-12-10T14:48:35.147Z,10
2016-12-10T14:49:51.569Z,10
2016-12-10T14:51:08.129Z,10
2016-12-10T14:52:21.453Z,5
2016-12-10T14:53:37.822Z,5
2016-12-10T14:54:54.402Z,5
2016-12-10T14:56:10.693Z,5
2016-12-10T14:57:25.233Z,5
2016-12-10T14:58:39.850Z,5
2016-12-10T14:59:55.523Z,5
2016-12-10T15:01:10.269Z,5
2016-12-10T15:02:23.250Z,0
2016-12-10T15:03:38.028Z,0
2016-12-10T15:04:53.933Z,0
2016-12-10T15:06:11.090Z,0
2016-12-10T15:07:27.149Z,0
2016-12-10T15:08:40.793Z,0
2016-12-10T15:09:57.247Z,0
2016-12-10T15:11:11.070Z,0
2016-12-10T15:12:24.672Z,0
2016-12-10T15:13:39.943Z,0
2016-12-10T15:14:54.243Z,0
2016-12-10T15:16:08.827Z,0
2016-12-10T15:17:24.986Z,0
2016-12-10T15:18:39.928Z,0
2016-12-10T15:19:55.878Z,0
2016-12-10T15:21:12.882Z,0
2016-12-10T15:22:26.067Z,0
2016-12-10T15:23:40.814Z,0
2016-12-10T15:24:56.723Z,0
2016-12-10T15:26:11.688Z,0
2016-12-10T15:27:25.244Z,0
2016-12-10T15:28:38.313Z,0
2016-12-10T15:29:51.623Z,0
2016-12-10T15:31:07.163Z,0
2016-12-10T15:32:21.870Z,0
2016-12-10T15:33:38.351Z,0
2016-12-10T15:34:52.929Z,0
2016-12-10T15:36:09.569Z,0
2016-12-10T15:37:21.454Z,0
2016-12-10T15:38:37.497Z,0
2016-12-10T15:39:52.054Z,0
2016-12-10T15:41:06.779Z,0
2016-12-10T15:42:21.243Z,0
2016-12-10T15:43:35.191Z,0
2016-12-10T15:44:51.685Z,0
2016-12-10T15:46:06.784Z,0
2016-12-10T15:47:22.793Z,0
2016-12-10T15:48:39.403Z,0
2016-12-10T15:49:55.854Z,0
2016-12-10T15:51:12.417Z,0
2016-12-10T15:52:25.821Z,0
2016-12-10T15:53:39.628Z,0
2016-12-10T15:54:53.047Z,0
2016-12-10T15:56:08.688Z,0
2016-12-10T15:57:23.201Z,0
2016-12-10T15:58:37.602Z,0
2016-12-10T15:59:52.997Z,0
2016-12-10T16:01:06.421Z,0
2016-12-10T16:02:21.269Z,0
2016-12-10T16:03:37.442Z,0
2016-12-10T16:04:52.053Z,0
2016-12-10T16:06:08.150Z,0
2016-12-10T16:07:21.246Z,0
2016-12-10T16:08:36.220Z,0
2016-12-10T16:09:50.996Z,0
2016-12-10T16:11:04.653Z,0
2016-12-10T16:12:21.375Z,0
2016-12-10T16:13:34.651Z,0
2016-12-10T16:14:48.850Z,0
2016-12-10T16:16:03.761Z,0
2016-12-10T16:17:17.804Z,0
2016-12-10T16:18:33.353Z,0
2016-12-10T16:19:49.266Z,0
2016-12-10T16:21:04.099Z,0
2016-12-10T16:22:17.734Z,0
2016-12-10T16:23:32.792Z,0
2016-12-10T16:24:46.587Z,0
2016-12-10T16:26:02.915Z,0
2016-12-10T16:27:19.246Z,0
2016-12-10T16:28:34.579Z,0
2016-12-10T16:29:49.284Z,0
2016-12-10T16:31:04.807Z,0
2016-12-10T16:32:21.710Z,0
2016-12-10T16:33:37.020Z,0
2016-12-10T16:34:51.315Z,0
2016-12-10T16:36:06.671Z,0
2016-12-10T16:37:22.048Z,0
2016-12-10T16:38:35.525Z,0
2016-12-10T16:39:52.328Z,0
2016-12-10T16:41:08.660Z,0
2016-12-10T16:42:22.690Z,0
2016-12-10T16:43:39.349Z,0
2016-12-10T16:44:56.235Z,0
2016-12-10T16:46:12.308Z,0
2016-12-10T16:47:26.594Z,0
2016-12-10T16:48:43.325Z,0
2016-12-10T16:49:55.348Z,0
2016-12-10T16:51:10.460Z,0
2016-12-10T16:52:25.977Z,0
2016-12-10T16:53:42.712Z,0
2016-12-10T16:54:57.822Z,0
2016-12-10T16:56:12.370Z,0
2016-12-10T16:57:25.852Z,0
2016-12-10T16:58:39.303Z,0
2016-12-10T16:59:53.399Z,0
2016-12-10T17:01:07.863Z,0
2016-12-10T17:02:23.197Z,0
2016-12-10T17:03:40.200Z,0
2016-12-10T17:04:56.319Z,0
2016-12-10T17:06:12.652Z,0
2016-12-10T17:07:25.861Z,0
2016-12-10T17:08:42.225Z,0
2016-12-10T17:09:55.709Z,0
2016-12-10T17:11:09.736Z,0
2016-12-10T17:12:24.013Z,0
2016-12-10T17:13:40.148Z,0
2016-12-10T17:14:53.606Z,0
2016-12-10T17:16:05.953Z,0
2016-12-10T17:17:20.263Z,0
2016-12-10T17:18:36.459Z,0
2016-12-10T17:19:51.611Z,0
2016-12-10T17:21:06.873Z,0
2016-12-10T17:22:18.980Z,0
2016-12-10T17:23:32.616Z,0
2016-12-10T17:24:47.727Z,0
2016-12-10T17:26:03.906Z,0
2016-12-10T17:27:20.506Z,0
2016-12-10T17:28:37.089Z,0
2016-12-10T17:29:51.768Z,0
2016-12-10T17:31:05.417Z,0
2016-12-10T17:32:20.545Z,0
2016-12-10T17:33:36.793Z,0
2016-12-10T17:34:52.695Z,0
2016-12-10T17:36:07.033Z,0
2016-12-10T17:37:22.370Z,0
2016-12-10T17:38:38.532Z,0
2016-12-10T17:39:54.843Z,0
2016-12-10T17:41:08.575Z,0
2016-12-10T17:42:22.209Z,0
2016-12-10T17:43:37.250Z,0
2016-12-10T17:44:54.213Z,0
2016-12-10T17:46:10.148Z,0
2016-12-10T17:47:22.414Z,0
2016-12-10T17:48:39.045Z,0
2016-12-10T17:49:51.808Z,0
2016-12-10T17:51:07.703Z,0
2016-12-10T17:52:20.990Z,0
2016-12-10T17:53:35.969Z,0
2016-12-10T17:54:52.408Z,0
2016-12-10T17:56:08.369Z,0
2016-12-10T17:57:24.895Z,0
2016-12-10T17:58:41.644Z,0
2016-12-10T17:59:57.919Z,0
2016-12-10T18:01:14.817Z,0
2016-12-10T18:02:28.465Z,0
2016-12-10T18:03:44.115Z,0
2016-12-10T18:04:58.565Z,0
2016-12-10T18:06:13.294Z,0
2016-12-10T18:07:27.908Z,0